createdAt,value
2022-10-11T00:00:19.787Z,26.24
2022-10-11T00:00:49.973Z,26.26
2022-10-11T00:01:20.069Z,26.26
2022-10-11T00:01:50.081Z,26.24
2022-10-11T00:02:20.196Z,26.24
2022-10-11T00:02:50.310Z,26.26
2022-10-11T00:03:20.445Z,26.23
2022-10-11T00:03:50.552Z,26.24
2022-10-11T00:04:20.673Z,26.26
2022-10-11T00:04:50.655Z,26.24
2022-10-11T00:05:20.774Z,26.24
2022-10-11T00:05:50.883Z,26.23
2022-10-11T00:06:21.002Z,26.23
2022-10-11T00:06:51.114Z,26.26
2022-10-11T00:07:21.223Z,26.23
2022-10-11T00:07:51.335Z,26.26
2022-10-11T00:08:21.449Z,26.23
2022-10-11T00:08:51.559Z,26.24
2022-10-11T00:09:21.694Z,26.23
2022-10-11T00:09:51.678Z,26.24
2022-10-11T00:10:21.791Z,26.24
2022-10-11T00:10:51.907Z,26.23
2022-10-11T00:11:22.020Z,26.23
2022-10-11T00:11:52.133Z,26.23
2022-10-11T00:12:22.250Z,26.23
2022-10-11T00:12:52.363Z,26.24
2022-10-11T00:13:22.479Z,26.24
2022-10-11T00:13:52.586Z,26.26
2022-10-11T00:14:22.734Z,26.23
2022-10-11T00:14:52.726Z,26.24
2022-10-11T00:15:22.841Z,26.23
2022-10-11T00:15:52.954Z,26.23
2022-10-11T00:16:23.064Z,26.26
2022-10-11T00:16:53.179Z,26.24
2022-10-11T00:17:23.295Z,26.23
2022-10-11T00:17:53.407Z,26.23
2022-10-11T00:18:23.549Z,26.24
2022-10-11T00:18:53.641Z,26.24
2022-10-11T00:19:23.925Z,26.22
2022-10-11T00:19:53.786Z,26.24
2022-10-11T00:20:23.899Z,26.24
2022-10-11T00:20:54.015Z,26.23
2022-10-11T00:21:24.132Z,26.24
2022-10-11T00:21:54.241Z,26.23
2022-10-11T00:22:24.353Z,26.24
2022-10-11T00:22:54.464Z,26.24
2022-10-11T00:23:24.579Z,26.23
2022-10-11T00:23:54.571Z,26.22
2022-10-11T00:24:24.700Z,26.20
2022-10-11T00:24:54.693Z,26.23
2022-10-11T00:25:24.806Z,26.24
2022-10-11T00:25:54.922Z,26.22
2022-10-11T00:26:25.034Z,26.23
2022-10-11T00:26:55.142Z,26.23
2022-10-11T00:27:25.146Z,26.23
2022-10-11T00:28:34.290Z,26.20
2022-10-11T00:29:04.227Z,26.22
2022-10-11T00:29:34.336Z,26.19
2022-10-11T00:30:04.411Z,26.20
2022-10-11T00:30:34.481Z,26.22
2022-10-11T00:31:04.997Z,26.19
2022-10-11T00:31:35.795Z,26.19
2022-10-11T00:32:04.669Z,26.19
2022-10-11T00:32:34.740Z,26.16
2022-10-11T00:33:04.809Z,26.16
2022-10-11T00:33:34.911Z,26.17
2022-10-11T00:34:04.963Z,26.19
2022-10-11T00:34:35.065Z,26.19
2022-10-11T00:35:05.140Z,26.19
2022-10-11T00:35:35.214Z,26.17
2022-10-11T00:36:05.569Z,26.20
2022-10-11T00:36:35.290Z,26.19
2022-10-11T00:37:05.368Z,26.16
2022-10-11T00:37:35.445Z,26.19
2022-10-11T00:38:05.516Z,26.19
2022-10-11T00:38:35.631Z,26.20
2022-10-11T00:39:05.742Z,26.19
2022-10-11T00:39:35.877Z,26.19
2022-10-11T00:40:05.858Z,26.19
2022-10-11T00:40:35.976Z,26.19
2022-10-11T00:41:06.094Z,26.20
2022-10-11T00:41:36.198Z,26.22
2022-10-11T00:42:06.308Z,26.20
2022-10-11T00:42:36.425Z,26.19
2022-10-11T00:43:06.535Z,26.19
2022-10-11T00:43:36.643Z,26.19
2022-10-11T00:44:06.756Z,26.20
2022-10-11T00:44:36.899Z,26.20
2022-10-11T00:45:06.886Z,26.23
2022-10-11T00:45:36.998Z,26.19
2022-10-11T00:46:07.607Z,26.20
2022-10-11T00:46:37.215Z,26.20
2022-10-11T00:47:07.328Z,26.20
2022-10-11T00:47:37.437Z,26.19
2022-10-11T00:48:07.549Z,26.22
2022-10-11T00:48:37.700Z,26.20
2022-10-11T00:49:07.778Z,26.20
2022-10-11T00:49:37.897Z,26.20
2022-10-11T00:50:08.010Z,26.20
2022-10-11T00:50:38.117Z,26.20
2022-10-11T00:51:08.547Z,26.20
2022-10-11T00:51:38.332Z,26.19
2022-10-11T00:52:08.457Z,26.20
2022-10-11T00:52:38.441Z,26.17
2022-10-11T00:53:08.553Z,26.20
2022-10-11T00:53:38.685Z,26.20
2022-10-11T00:54:08.777Z,26.20
2022-10-11T00:54:38.899Z,26.19
2022-10-11T00:55:08.890Z,26.20
2022-10-11T00:55:38.998Z,26.19
2022-10-11T00:56:09.561Z,26.20
2022-10-11T00:56:39.194Z,26.19
2022-10-11T00:57:09.308Z,26.19
2022-10-11T00:57:39.421Z,26.19
2022-10-11T00:58:09.528Z,26.19
2022-10-11T00:58:39.639Z,26.20
2022-10-11T00:59:09.753Z,26.17
2022-10-11T00:59:39.861Z,26.19
2022-10-11T01:00:09.978Z,26.19
2022-10-11T01:00:40.090Z,26.20
2022-10-11T01:01:10.243Z,26.20
2022-10-11T01:01:40.316Z,26.20
2022-10-11T01:02:10.299Z,26.16
2022-10-11T01:02:40.403Z,26.22
2022-10-11T01:03:10.521Z,26.19
2022-10-11T01:03:40.658Z,26.20
2022-10-11T01:04:10.744Z,26.23
2022-10-11T01:04:40.853Z,26.20
2022-10-11T01:05:28.532Z,26.20
2022-10-11T01:05:40.976Z,26.17
2022-10-11T01:06:11.084Z,26.19
2022-10-11T01:06:41.201Z,26.19
2022-10-11T01:07:11.314Z,26.20
2022-10-11T01:07:41.422Z,26.19
2022-10-11T01:08:11.538Z,26.20
2022-10-11T01:08:41.653Z,26.20
2022-10-11T01:09:11.762Z,26.22
2022-10-11T01:09:41.874Z,26.16
2022-10-11T01:10:11.994Z,26.22
2022-10-11T01:10:42.108Z,26.22
2022-10-11T01:11:12.218Z,26.20
2022-10-11T01:11:42.325Z,26.19
2022-10-11T01:12:12.440Z,26.20
2022-10-11T01:12:42.548Z,26.22
2022-10-11T01:13:12.660Z,26.19
2022-10-11T01:13:42.778Z,26.20
2022-10-11T01:14:12.884Z,26.22
2022-10-11T01:14:42.999Z,26.20
2022-10-11T01:15:13.114Z,26.20
2022-10-11T01:15:43.226Z,26.22
2022-10-11T01:16:13.347Z,26.20
2022-10-11T01:16:43.459Z,26.23
2022-10-11T01:17:13.572Z,26.20
2022-10-11T01:17:43.678Z,26.20
2022-10-11T01:18:13.787Z,26.22
2022-10-11T01:18:43.807Z,26.20
2022-10-11T01:19:13.897Z,26.20
2022-10-11T01:19:44.006Z,26.20
2022-10-11T01:20:14.128Z,26.22
2022-10-11T01:20:44.240Z,26.19
2022-10-11T01:21:14.351Z,26.22
2022-10-11T01:21:44.460Z,26.22
2022-10-11T01:22:14.572Z,26.20
2022-10-11T01:22:44.681Z,26.20
2022-10-11T01:23:14.793Z,26.20
2022-10-11T01:23:44.902Z,26.20
2022-10-11T01:24:15.018Z,26.19
2022-10-11T01:24:45.127Z,26.20
2022-10-11T01:25:15.244Z,26.20
2022-10-11T01:25:45.231Z,26.20
2022-10-11T01:26:15.347Z,26.17
2022-10-11T01:26:45.455Z,26.22
2022-10-11T01:27:15.568Z,26.22
2022-10-11T01:27:45.677Z,26.22
2022-10-11T01:28:15.866Z,26.20
2022-10-11T01:28:45.896Z,26.20
2022-10-11T01:29:15.852Z,26.22
2022-10-11T01:29:45.933Z,26.17
2022-10-11T01:30:16.015Z,26.20
2022-10-11T01:30:46.090Z,26.20
2022-10-11T01:31:16.167Z,26.20
2022-10-11T01:31:46.245Z,26.22
2022-10-11T01:32:16.329Z,26.20
2022-10-11T01:32:46.396Z,26.19
2022-10-11T01:33:16.473Z,26.19
2022-10-11T01:33:46.566Z,26.19
2022-10-11T01:34:16.620Z,26.20
2022-10-11T01:34:46.696Z,26.17
2022-10-11T01:35:16.776Z,26.19
2022-10-11T01:35:46.846Z,26.19
2022-10-11T01:36:16.925Z,26.19
2022-10-11T01:36:46.999Z,26.17
2022-10-11T01:37:17.081Z,26.16
2022-10-11T01:37:47.152Z,26.16
2022-10-11T01:38:17.250Z,26.16
2022-10-11T01:38:47.361Z,26.15
2022-10-11T01:39:17.474Z,26.17
2022-10-11T01:39:47.591Z,26.15
2022-10-11T01:40:17.583Z,26.16
2022-10-11T01:40:47.690Z,26.17
2022-10-11T01:41:17.807Z,26.16
2022-10-11T01:41:47.919Z,26.16
2022-10-11T01:42:18.033Z,26.16
2022-10-11T01:42:48.028Z,26.16
2022-10-11T01:43:18.135Z,26.15
2022-10-11T01:43:48.245Z,26.16
2022-10-11T01:44:18.359Z,26.15
2022-10-11T01:44:48.481Z,26.13
2022-10-11T01:45:18.474Z,26.16
2022-10-11T01:45:48.588Z,26.17
2022-10-11T01:46:18.705Z,26.17
2022-10-11T01:46:48.820Z,26.16
2022-10-11T01:47:18.937Z,26.17
2022-10-11T01:47:49.045Z,26.16
2022-10-11T01:48:19.155Z,26.13
2022-10-11T01:48:49.266Z,26.16
2022-10-11T01:49:19.403Z,26.15
2022-10-11T01:49:49.494Z,26.15
2022-10-11T01:50:19.609Z,26.15
2022-10-11T01:50:49.597Z,26.13
2022-10-11T01:51:19.708Z,26.15
2022-10-11T01:51:49.820Z,26.15
2022-10-11T01:52:19.935Z,26.13
2022-10-11T01:52:50.046Z,26.15
2022-10-11T01:53:20.173Z,26.15
2022-10-11T01:53:50.278Z,26.15
2022-10-11T01:54:20.389Z,26.15
2022-10-11T01:55:08.624Z,26.12
2022-10-11T01:55:20.514Z,26.12
2022-10-11T01:55:50.507Z,26.13
2022-10-11T01:56:20.618Z,26.13
2022-10-11T01:56:50.730Z,26.13
2022-10-11T01:57:20.844Z,26.12
2022-10-11T01:57:50.954Z,26.12
2022-10-11T01:58:21.067Z,26.13
2022-10-11T01:58:51.178Z,26.13
2022-10-11T01:59:21.291Z,26.13
2022-10-11T01:59:51.402Z,26.12
2022-10-11T02:00:21.521Z,26.12
2022-10-11T02:00:51.626Z,26.12
2022-10-11T02:01:21.764Z,26.13
2022-10-11T02:01:51.802Z,26.13
2022-10-11T02:02:21.831Z,26.13
2022-10-11T02:02:51.825Z,26.12
2022-10-11T02:03:21.939Z,26.12
2022-10-11T02:03:52.051Z,26.12
2022-10-11T02:04:22.187Z,26.10
2022-10-11T02:04:52.299Z,26.13
2022-10-11T02:05:22.283Z,26.12
2022-10-11T02:05:52.394Z,26.13
2022-10-11T02:06:22.398Z,26.12
2022-10-11T02:06:52.506Z,26.13
2022-10-11T02:07:22.615Z,26.12
2022-10-11T02:07:52.730Z,26.12
2022-10-11T02:08:22.838Z,26.12
2022-10-11T02:08:52.950Z,26.12
2022-10-11T02:09:23.065Z,26.13
2022-10-11T02:09:53.190Z,26.12
2022-10-11T02:10:23.178Z,26.12
2022-10-11T02:10:53.294Z,26.13
2022-10-11T02:11:23.396Z,26.10
2022-10-11T02:11:53.509Z,26.12
2022-10-11T02:12:23.623Z,26.13
2022-10-11T02:12:53.742Z,26.12
2022-10-11T02:13:23.850Z,26.10
2022-10-11T02:13:53.957Z,26.10
2022-10-11T02:14:24.077Z,26.12
2022-10-11T02:14:54.209Z,26.12
2022-10-11T02:15:24.186Z,26.13
2022-10-11T02:15:54.301Z,26.12
2022-10-11T02:16:24.414Z,26.10
2022-10-11T02:16:54.521Z,26.12
2022-10-11T02:17:24.631Z,26.10
2022-10-11T02:17:54.746Z,26.10
2022-10-11T02:18:24.862Z,26.10
2022-10-11T02:18:54.982Z,26.10
2022-10-11T02:19:25.109Z,26.10
2022-10-11T02:19:55.256Z,26.10
2022-10-11T02:20:25.244Z,26.10
2022-10-11T02:20:55.357Z,26.10
2022-10-11T02:21:25.468Z,26.10
2022-10-11T02:21:55.576Z,26.12
2022-10-11T02:22:25.691Z,26.10
2022-10-11T02:22:55.802Z,26.13
2022-10-11T02:23:25.911Z,26.12
2022-10-11T02:23:56.035Z,26.13
2022-10-11T02:24:26.024Z,26.10
2022-10-11T02:24:56.162Z,26.10
2022-10-11T02:25:26.145Z,26.10
2022-10-11T02:25:56.257Z,26.12
2022-10-11T02:26:26.368Z,26.12
2022-10-11T02:26:56.486Z,26.12
2022-10-11T02:27:26.609Z,26.10
2022-10-11T02:27:56.597Z,26.10
2022-10-11T02:28:26.770Z,26.12
2022-10-11T02:28:56.865Z,26.10
2022-10-11T02:29:26.804Z,26.09
2022-10-11T02:29:56.906Z,26.12
2022-10-11T02:30:26.977Z,26.12
2022-10-11T02:30:57.050Z,26.09
2022-10-11T02:31:27.123Z,26.09
2022-10-11T02:31:57.203Z,26.10
2022-10-11T02:32:27.275Z,26.10
2022-10-11T02:32:57.350Z,26.09
2022-10-11T02:33:27.423Z,26.10
2022-10-11T02:33:57.490Z,26.10
2022-10-11T02:34:27.563Z,26.12
2022-10-11T02:34:57.729Z,26.10
2022-10-11T02:35:27.645Z,26.10
2022-10-11T02:35:57.721Z,26.10
2022-10-11T02:36:27.789Z,26.09
2022-10-11T02:36:57.883Z,26.10
2022-10-11T02:37:27.965Z,26.09
2022-10-11T02:37:58.033Z,26.10
2022-10-11T02:38:28.142Z,26.07
2022-10-11T02:38:58.258Z,26.10
2022-10-11T02:39:28.366Z,26.10
2022-10-11T02:39:58.493Z,26.12
2022-10-11T02:40:28.472Z,26.09
2022-10-11T02:40:58.469Z,26.09
2022-10-11T02:41:28.579Z,26.09
2022-10-11T02:41:58.689Z,26.09
2022-10-11T02:42:28.802Z,26.10
2022-10-11T02:42:58.908Z,26.09
2022-10-11T02:43:29.019Z,26.09
2022-10-11T02:43:59.015Z,26.07
2022-10-11T02:44:29.129Z,26.10
2022-10-11T02:44:59.257Z,26.10
2022-10-11T02:45:29.250Z,26.10
2022-10-11T02:45:59.356Z,26.10
2022-10-11T02:46:29.477Z,26.07
2022-10-11T02:46:59.582Z,26.10
2022-10-11T02:47:29.698Z,26.09
2022-10-11T02:47:59.802Z,26.10
2022-10-11T02:48:29.918Z,26.09
2022-10-11T02:48:59.913Z,26.09
2022-10-11T02:49:30.029Z,26.10
2022-10-11T02:50:00.169Z,26.12
2022-10-11T02:50:30.164Z,26.09
2022-10-11T02:51:00.256Z,26.09
2022-10-11T02:51:30.364Z,26.07
2022-10-11T02:52:00.476Z,26.07
2022-10-11T02:52:30.588Z,26.07
2022-10-11T02:53:00.698Z,26.06
2022-10-11T02:53:30.808Z,26.06
2022-10-11T02:54:00.921Z,26.07
2022-10-11T02:54:31.033Z,26.05
2022-10-11T02:55:01.210Z,26.07
2022-10-11T02:55:31.202Z,26.07
2022-10-11T02:56:01.560Z,26.06
2022-10-11T02:56:31.330Z,26.07
2022-10-11T02:57:01.439Z,26.10
2022-10-11T02:57:31.552Z,26.09
2022-10-11T02:58:01.665Z,26.07
2022-10-11T02:58:31.777Z,26.06
2022-10-11T02:59:01.891Z,26.06
2022-10-11T02:59:32.001Z,26.05
2022-10-11T03:00:02.127Z,26.06
2022-10-11T03:00:32.123Z,26.06
2022-10-11T03:01:02.234Z,26.09
2022-10-11T03:01:32.402Z,26.07
2022-10-11T03:02:02.551Z,26.07
2022-10-11T03:02:32.415Z,26.06
2022-10-11T03:03:02.523Z,26.09
2022-10-11T03:03:32.632Z,26.07
2022-10-11T03:04:02.745Z,26.07
2022-10-11T03:04:32.862Z,26.06
2022-10-11T03:05:02.998Z,26.09
2022-10-11T03:05:33.016Z,26.07
2022-10-11T03:06:03.471Z,26.07
2022-10-11T03:06:33.197Z,26.06
2022-10-11T03:07:03.311Z,26.05
2022-10-11T03:07:33.419Z,26.06
2022-10-11T03:08:03.535Z,26.05
2022-10-11T03:08:33.645Z,26.03
2022-10-11T03:09:03.756Z,26.07
2022-10-11T03:09:33.872Z,26.06
2022-10-11T03:10:04.003Z,26.05
2022-10-11T03:10:33.984Z,26.06
2022-10-11T03:11:04.102Z,26.05
2022-10-11T03:11:34.209Z,26.03
2022-10-11T03:12:04.331Z,26.06
2022-10-11T03:12:34.442Z,26.06
2022-10-11T03:13:04.549Z,26.05
2022-10-11T03:13:34.665Z,26.05
2022-10-11T03:14:04.668Z,26.05
2022-10-11T03:14:34.783Z,26.06
2022-10-11T03:15:04.923Z,26.06
2022-10-11T03:15:34.909Z,26.05
2022-10-11T03:16:05.024Z,26.05
2022-10-11T03:16:35.134Z,26.06
2022-10-11T03:17:30.950Z,26.05
2022-10-11T03:17:36.857Z,26.03
2022-10-11T03:18:05.315Z,26.05
2022-10-11T03:18:35.425Z,26.07
2022-10-11T03:19:05.538Z,26.05
2022-10-11T03:19:35.554Z,26.05
2022-10-11T03:20:05.686Z,26.05
2022-10-11T03:20:35.693Z,26.05
2022-10-11T03:21:05.783Z,26.03
2022-10-11T03:21:35.894Z,26.05
2022-10-11T03:22:06.007Z,26.03
2022-10-11T03:22:36.116Z,26.03
2022-10-11T03:23:06.227Z,26.03
2022-10-11T03:23:36.337Z,26.03
2022-10-11T03:24:06.450Z,26.03
2022-10-11T03:24:36.563Z,26.02
2022-10-11T03:25:06.731Z,26.03
2022-10-11T03:25:36.711Z,26.05
2022-10-11T03:26:07.490Z,26.03
2022-10-11T03:26:36.835Z,26.06
2022-10-11T03:27:06.946Z,26.03
2022-10-11T03:27:37.059Z,26.06
2022-10-11T03:28:07.198Z,26.05
2022-10-11T03:28:37.265Z,26.05
2022-10-11T03:29:07.323Z,26.05
2022-10-11T03:29:37.396Z,26.05
2022-10-11T03:30:07.490Z,26.06
2022-10-11T03:30:37.559Z,26.06
2022-10-11T03:31:07.636Z,26.02
2022-10-11T03:31:37.706Z,26.05
2022-10-11T03:32:07.786Z,26.06
2022-10-11T03:32:37.851Z,26.03
2022-10-11T03:33:07.922Z,26.05
2022-10-11T03:33:38.000Z,26.05
2022-10-11T03:34:08.073Z,26.06
2022-10-11T03:34:38.146Z,26.05
2022-10-11T03:35:08.255Z,26.05
2022-10-11T03:35:38.349Z,26.02
2022-10-11T03:36:08.719Z,26.05
2022-10-11T03:36:38.470Z,26.06
2022-10-11T03:37:08.556Z,26.05
2022-10-11T03:37:38.629Z,26.06
2022-10-11T03:38:12.832Z,26.05
2022-10-11T03:38:38.784Z,26.05
2022-10-11T03:39:08.897Z,26.03
2022-10-11T03:39:39.009Z,26.06
2022-10-11T03:40:09.140Z,26.02
2022-10-11T03:40:39.126Z,26.03
2022-10-11T03:41:09.268Z,26.03
2022-10-11T03:41:39.269Z,26.02
2022-10-11T03:42:09.254Z,26.02
2022-10-11T03:42:39.365Z,25.99
2022-10-11T03:43:09.478Z,26.00
2022-10-11T03:43:39.468Z,25.99
2022-10-11T03:44:09.593Z,26.02
2022-10-11T03:44:39.587Z,25.99
2022-10-11T03:45:09.729Z,26.00
2022-10-11T03:45:39.706Z,26.00
2022-10-11T03:46:09.822Z,26.00
2022-10-11T03:46:39.931Z,25.99
2022-10-11T03:47:10.047Z,26.02
2022-10-11T03:47:40.158Z,26.05
2022-10-11T03:48:10.272Z,26.05
2022-10-11T03:48:40.391Z,26.05
2022-10-11T03:49:10.506Z,26.06
2022-10-11T03:49:43.580Z,26.03
2022-10-11T03:50:10.744Z,26.03
2022-10-11T03:50:40.726Z,26.05
2022-10-11T03:51:10.862Z,26.07
2022-10-11T03:51:40.948Z,26.07
2022-10-11T03:52:11.058Z,26.07
2022-10-11T03:52:41.174Z,26.09
2022-10-11T03:53:11.279Z,26.12
2022-10-11T03:53:41.396Z,26.12
2022-10-11T03:54:11.505Z,26.10
2022-10-11T03:54:41.613Z,26.13
2022-10-11T03:55:11.753Z,26.12
2022-10-11T03:55:41.735Z,26.15
2022-10-11T03:56:12.240Z,26.13
2022-10-11T03:56:41.905Z,26.13
2022-10-11T03:57:12.015Z,26.13
2022-10-11T03:57:42.121Z,26.12
2022-10-11T03:58:12.229Z,26.09
2022-10-11T03:58:42.341Z,26.09
2022-10-11T03:59:12.456Z,26.10
2022-10-11T03:59:42.572Z,26.09
2022-10-11T04:00:12.703Z,26.10
2022-10-11T04:00:42.690Z,26.07
2022-10-11T04:01:12.805Z,26.12
2022-10-11T04:01:43.009Z,26.10
2022-10-11T04:02:13.089Z,26.10
2022-10-11T04:02:43.093Z,26.10
2022-10-11T04:03:13.209Z,26.13
2022-10-11T04:03:43.313Z,26.13
2022-10-11T04:04:13.424Z,26.12
2022-10-11T04:04:43.567Z,26.10
2022-10-11T04:05:13.654Z,26.13
2022-10-11T04:05:43.642Z,26.13
2022-10-11T04:06:13.770Z,26.15
2022-10-11T04:06:43.864Z,26.13
2022-10-11T04:07:13.978Z,26.15
2022-10-11T04:07:44.086Z,26.17
2022-10-11T04:08:14.200Z,26.13
2022-10-11T04:08:44.312Z,26.16
2022-10-11T04:09:14.427Z,26.15
2022-10-11T04:09:44.537Z,26.16
2022-10-11T04:10:14.666Z,26.07
2022-10-11T04:10:44.653Z,26.09
2022-10-11T04:11:14.772Z,26.10
2022-10-11T04:11:44.887Z,26.12
2022-10-11T04:12:15.000Z,26.10
2022-10-11T04:12:45.110Z,26.09
2022-10-11T04:13:15.225Z,26.10
2022-10-11T04:13:45.339Z,26.13
2022-10-11T04:14:15.448Z,26.13
2022-10-11T04:14:45.568Z,26.10
2022-10-11T04:15:15.560Z,26.13
2022-10-11T04:15:45.669Z,26.10
2022-10-11T04:16:15.781Z,26.09
2022-10-11T04:16:45.889Z,26.09
2022-10-11T04:17:16.004Z,26.12
2022-10-11T04:17:46.116Z,26.13
2022-10-11T04:18:16.229Z,26.15
2022-10-11T04:18:46.335Z,26.15
2022-10-11T04:19:16.448Z,26.16
2022-10-11T04:19:46.566Z,26.17
2022-10-11T04:20:16.572Z,26.19
2022-10-11T04:20:46.560Z,26.19
2022-10-11T04:21:16.700Z,26.19
2022-10-11T04:21:46.791Z,26.20
2022-10-11T04:22:16.903Z,26.20
2022-10-11T04:22:47.016Z,26.23
2022-10-11T04:23:17.129Z,26.19
2022-10-11T04:23:47.239Z,26.20
2022-10-11T04:24:17.358Z,26.23
2022-10-11T04:24:47.467Z,26.22
2022-10-11T04:25:17.583Z,26.20
2022-10-11T04:25:47.692Z,26.17
2022-10-11T04:26:17.805Z,26.19
2022-10-11T04:26:47.918Z,26.20
2022-10-11T04:27:18.029Z,26.19
2022-10-11T04:27:48.142Z,26.20
2022-10-11T04:28:18.307Z,26.20
2022-10-11T04:28:48.395Z,26.22
2022-10-11T04:29:18.310Z,26.22
2022-10-11T04:29:48.393Z,26.22
2022-10-11T04:30:18.468Z,26.23
2022-10-11T04:30:48.540Z,26.23
2022-10-11T04:31:18.617Z,26.24
2022-10-11T04:31:48.691Z,26.24
2022-10-11T04:32:18.766Z,26.23
2022-10-11T04:32:48.841Z,26.23
2022-10-11T04:33:18.913Z,26.26
2022-10-11T04:33:48.988Z,26.23
2022-10-11T04:34:19.065Z,26.27
2022-10-11T04:34:49.142Z,26.24
2022-10-11T04:35:19.218Z,26.26
2022-10-11T04:35:49.302Z,26.27
2022-10-11T04:36:19.399Z,26.27
2022-10-11T04:36:50.111Z,26.24
2022-10-11T04:37:19.471Z,26.24
2022-10-11T04:37:49.543Z,26.26
2022-10-11T04:38:19.643Z,26.29
2022-10-11T04:38:49.751Z,26.26
2022-10-11T04:39:19.868Z,26.26
2022-10-11T04:39:49.989Z,26.27
2022-10-11T04:40:20.103Z,26.22
2022-10-11T04:40:50.213Z,26.22
2022-10-11T04:41:20.326Z,26.22
2022-10-11T04:41:50.438Z,26.22
2022-10-11T04:42:20.556Z,26.22
2022-10-11T04:42:50.661Z,26.22
2022-10-11T04:43:20.773Z,26.24
2022-10-11T04:43:50.888Z,26.19
2022-10-11T04:44:21.007Z,26.16
2022-10-11T04:44:51.001Z,26.17
2022-10-11T04:45:20.986Z,26.20
2022-10-11T04:45:55.263Z,26.20
2022-10-11T04:46:21.085Z,26.20
2022-10-11T04:46:51.196Z,26.20
2022-10-11T04:47:21.308Z,26.22
2022-10-11T04:47:51.420Z,26.23
2022-10-11T04:48:21.544Z,26.24
2022-10-11T04:48:51.658Z,26.24
2022-10-11T04:49:21.777Z,26.23
2022-10-11T04:49:51.768Z,26.26
2022-10-11T04:50:21.886Z,26.23
2022-10-11T04:50:52.000Z,26.23
2022-10-11T04:51:22.141Z,26.24
2022-10-11T04:51:52.224Z,26.24
2022-10-11T04:52:25.800Z,26.23
2022-10-11T04:52:52.379Z,26.24
2022-10-11T04:53:22.499Z,26.23
2022-10-11T04:53:52.602Z,26.23
2022-10-11T04:54:22.717Z,26.23
2022-10-11T04:54:52.861Z,26.23
2022-10-11T04:55:22.849Z,26.23
2022-10-11T04:55:52.956Z,26.24
2022-10-11T04:56:23.074Z,26.23
2022-10-11T04:56:53.184Z,26.24
2022-10-11T04:57:23.297Z,26.22
2022-10-11T04:57:53.418Z,26.23
2022-10-11T04:58:23.526Z,26.23
2022-10-11T04:58:53.644Z,26.24
2022-10-11T04:59:23.758Z,26.24
2022-10-11T04:59:53.870Z,26.24
2022-10-11T05:00:23.866Z,26.23
2022-10-11T05:00:53.975Z,26.23
2022-10-11T05:01:24.090Z,26.20
2022-10-11T05:01:54.299Z,26.24
2022-10-11T05:02:24.241Z,26.23
2022-10-11T05:02:54.241Z,26.22
2022-10-11T05:03:24.413Z,26.24
2022-10-11T05:03:54.429Z,26.22
2022-10-11T05:04:24.545Z,26.23
2022-10-11T05:04:54.657Z,26.24
2022-10-11T05:05:24.774Z,26.23
2022-10-11T05:05:54.889Z,26.23
2022-10-11T05:06:25.028Z,26.26
2022-10-11T05:06:55.115Z,26.23
2022-10-11T05:07:25.228Z,26.26
2022-10-11T05:07:55.340Z,26.23
2022-10-11T05:08:25.473Z,26.23
2022-10-11T05:08:55.457Z,26.23
2022-10-11T05:09:25.446Z,26.23
2022-10-11T05:09:55.559Z,26.23
2022-10-11T05:10:25.553Z,26.26
2022-10-11T05:10:55.667Z,26.27
2022-10-11T05:11:25.777Z,26.26
2022-10-11T05:11:55.895Z,26.29
2022-10-11T05:12:26.005Z,26.27
2022-10-11T05:12:56.118Z,26.29
2022-10-11T05:13:26.230Z,26.29
2022-10-11T05:13:56.342Z,26.29
2022-10-11T05:14:26.455Z,26.33
2022-10-11T05:14:56.577Z,26.32
2022-10-11T05:15:26.686Z,26.29
2022-10-11T05:15:56.802Z,26.32
2022-10-11T05:16:26.915Z,26.33
2022-10-11T05:16:57.031Z,26.34
2022-10-11T05:17:27.140Z,26.37
2022-10-11T05:17:57.247Z,26.37
2022-10-11T05:18:27.359Z,26.43
2022-10-11T05:18:57.478Z,26.44
2022-10-11T05:19:27.585Z,26.47
2022-10-11T05:19:57.704Z,26.48
2022-10-11T05:20:27.821Z,26.51
2022-10-11T05:20:57.931Z,26.50
2022-10-11T05:21:28.068Z,26.54
2022-10-11T05:21:58.155Z,26.58
2022-10-11T05:22:28.273Z,26.60
2022-10-11T05:22:58.401Z,26.60
2022-10-11T05:23:28.386Z,26.61
2022-10-11T05:23:58.500Z,26.64
2022-10-11T05:24:28.613Z,26.65
2022-10-11T05:24:58.729Z,26.67
2022-10-11T05:25:28.848Z,26.68
2022-10-11T05:25:58.956Z,26.70
2022-10-11T05:26:29.066Z,26.71
2022-10-11T05:27:03.186Z,26.74
2022-10-11T05:27:29.262Z,26.74
2022-10-11T05:27:59.371Z,26.74
2022-10-11T05:28:29.518Z,26.77
2022-10-11T05:28:59.561Z,26.77
2022-10-11T05:29:29.549Z,26.80
2022-10-11T05:29:59.622Z,26.80
2022-10-11T05:30:29.698Z,26.82
2022-10-11T05:30:59.774Z,26.80
2022-10-11T05:31:29.846Z,26.81
2022-10-11T05:31:59.925Z,26.84
2022-10-11T05:32:29.997Z,26.85
2022-10-11T05:33:00.088Z,26.84
2022-10-11T05:33:30.139Z,26.90
2022-10-11T05:34:00.215Z,26.87
2022-10-11T05:34:30.284Z,26.88
2022-10-11T05:35:00.362Z,26.90
2022-10-11T05:35:30.433Z,26.91
2022-10-11T05:36:00.507Z,26.92
2022-10-11T05:36:30.579Z,26.94
2022-10-11T05:37:00.694Z,26.94
2022-10-11T05:37:30.782Z,26.95
2022-10-11T05:38:00.864Z,26.95
2022-10-11T05:38:30.976Z,26.97
2022-10-11T05:39:01.093Z,26.98
2022-10-11T05:39:31.211Z,26.97
2022-10-11T05:40:01.327Z,26.99
2022-10-11T05:40:31.315Z,26.99
2022-10-11T05:41:01.423Z,27.01
2022-10-11T05:41:31.421Z,27.02
2022-10-11T05:42:01.539Z,27.02
2022-10-11T05:42:31.647Z,27.03
2022-10-11T05:43:01.762Z,27.06
2022-10-11T05:43:31.875Z,27.05
2022-10-11T05:44:01.985Z,27.09
2022-10-11T05:44:32.095Z,27.08
2022-10-11T05:45:02.214Z,27.09
2022-10-11T05:45:32.322Z,27.09
2022-10-11T05:46:02.936Z,27.11
2022-10-11T05:46:32.528Z,27.09
2022-10-11T05:47:02.643Z,27.12
2022-10-11T05:47:32.753Z,27.12
2022-10-11T05:48:02.865Z,27.15
2022-10-11T05:48:32.978Z,27.15
2022-10-11T05:49:03.098Z,27.16
2022-10-11T05:49:33.208Z,27.16
2022-10-11T05:50:03.322Z,27.16
2022-10-11T05:50:33.433Z,27.19
2022-10-11T05:51:03.559Z,27.21
2022-10-11T05:51:33.655Z,27.22
2022-10-11T05:52:03.786Z,27.19
2022-10-11T05:52:33.877Z,27.21
2022-10-11T05:53:03.987Z,27.22
2022-10-11T05:53:34.099Z,27.21
2022-10-11T05:54:04.214Z,27.22
2022-10-11T05:54:34.329Z,27.22
2022-10-11T05:55:04.443Z,27.23
2022-10-11T05:55:34.555Z,27.26
2022-10-11T05:56:05.001Z,27.25
2022-10-11T05:56:34.688Z,27.26
2022-10-11T05:57:04.798Z,27.28
2022-10-11T05:57:34.909Z,27.25
2022-10-11T05:58:05.018Z,27.28
2022-10-11T05:58:35.129Z,27.29
2022-10-11T05:59:05.244Z,27.29
2022-10-11T05:59:35.355Z,27.30
2022-10-11T06:00:05.476Z,27.30
2022-10-11T06:00:35.466Z,27.28
2022-10-11T06:01:05.620Z,27.28
2022-10-11T06:01:35.692Z,27.29
2022-10-11T06:02:05.687Z,27.28
2022-10-11T06:02:35.797Z,27.28
2022-10-11T06:03:05.920Z,27.28
2022-10-11T06:03:35.902Z,27.29
2022-10-11T06:04:06.011Z,27.28
2022-10-11T06:04:36.118Z,27.28
2022-10-11T06:05:06.235Z,27.29
2022-10-11T06:05:36.344Z,27.30
2022-10-11T06:06:06.869Z,27.29
2022-10-11T06:06:36.458Z,27.30
2022-10-11T06:07:06.593Z,27.30
2022-10-11T06:07:36.681Z,27.29
2022-10-11T06:08:06.791Z,27.29
2022-10-11T06:08:36.901Z,27.32
2022-10-11T06:09:07.016Z,27.32
2022-10-11T06:09:37.123Z,27.32
2022-10-11T06:10:07.243Z,27.33
2022-10-11T06:10:37.352Z,27.33
2022-10-11T06:11:11.379Z,27.32
2022-10-11T06:11:37.499Z,27.33
2022-10-11T06:12:07.609Z,27.34
2022-10-11T06:12:37.724Z,27.33
2022-10-11T06:13:07.834Z,27.34
2022-10-11T06:13:37.943Z,27.34
2022-10-11T06:14:08.060Z,27.34
2022-10-11T06:14:38.170Z,27.34
2022-10-11T06:15:08.291Z,27.38
2022-10-11T06:15:38.401Z,27.36
2022-10-11T06:16:08.683Z,27.38
2022-10-11T06:16:38.524Z,27.38
2022-10-11T06:17:08.632Z,27.39
2022-10-11T06:17:38.743Z,27.38
2022-10-11T06:18:08.870Z,27.39
2022-10-11T06:18:38.857Z,27.38
2022-10-11T06:19:08.970Z,27.38
2022-10-11T06:19:39.082Z,27.39
2022-10-11T06:20:09.271Z,27.36
2022-10-11T06:20:39.253Z,27.38
2022-10-11T06:21:09.362Z,27.39
2022-10-11T06:21:39.486Z,27.40
2022-10-11T06:22:09.620Z,27.40
2022-10-11T06:22:39.614Z,27.42
2022-10-11T06:23:09.734Z,27.39
2022-10-11T06:23:39.839Z,27.40
2022-10-11T06:24:09.951Z,27.40
2022-10-11T06:24:40.066Z,27.42
2022-10-11T06:25:10.205Z,27.40
2022-10-11T06:25:40.192Z,27.39
2022-10-11T06:26:10.549Z,27.42
2022-10-11T06:26:40.388Z,27.42
2022-10-11T06:27:10.498Z,27.40
2022-10-11T06:27:40.606Z,27.42
2022-10-11T06:28:10.769Z,27.42